Time;durP1;ratioP1;P1;durP2;ratioP2;P2;SDS_P1;SDS_P2;PMS_P1;PMS_P2;Temp;Humidity;BMP_temperature;BMP_pressure;BME280_temperature;BME280_humidity;BME280_pressure;Samples;Min_cycle;Max_cycle;Signal;HPM_P1;HPM_P2
2021/10/19 00:00:10;;;;;;;;;29.50;28.25;;;;;10.20;58.20;101691.91;4932318;29;11612;-69
2021/10/19 00:03:08;;;;;;;;;24.50;24.50;;;;;10.18;58.05;101688.59;4938458;29;11677;-68
2021/10/19 00:06:03;;;;;;;;;24.75;23.25;;;;;10.09;58.55;101684.91;4937999;29;11593;-68
2021/10/19 00:08:59;;;;;;;;;30.00;29.50;;;;;10.04;58.50;101684.97;4938377;29;11524;-69
2021/10/19 00:11:55;;;;;;;;;27.25;26.75;;;;;10.17;58.19;101689.72;4936171;29;11579;-68
2021/10/19 00:14:37;;;;;;;;;21.00;20.75;;;;;10.15;58.41;101688.41;4935218;29;11490;-69
2021/10/19 00:17:32;;;;;;;;;25.25;25.25;;;;;10.18;58.54;101682.25;4937897;29;11517;-69
2021/10/19 00:20:29;;;;;;;;;24.50;24.50;;;;;10.13;58.42;101685.94;4937798;29;11526;-69
2021/10/19 00:22:56;;;;;;;;;32.00;32.00;;;;;10.23;58.07;101680.25;4938481;29;12340;-69
2021/10/19 00:25:52;;;;;;;;;32.75;30.50;;;;;10.25;57.98;101678.00;4937521;29;11605;-69
2021/10/19 00:28:48;;;;;;;;;23.25;23.25;;;;;10.23;58.34;101680.25;4938051;29;11563;-69
2021/10/19 00:31:44;;;;;;;;;28.75;28.75;;;;;10.31;57.94;101670.44;4938023;29;11544;-68
2021/10/19 00:34:40;;;;;;;;;28.25;26.00;;;;;10.26;58.15;101673.28;4937557;29;11542;-68
2021/10/19 00:37:35;;;;;;;;;24.50;24.25;;;;;10.34;57.98;101677.28;4925787;29;11534;-69
2021/10/19 00:40:05;;;;;;;;;31.00;31.00;;;;;10.24;57.89;101672.78;4938572;29;11557;-68
2021/10/19 00:43:01;;;;;;;;;30.00;28.75;;;;;10.25;57.80;101668.88;4937349;29;11564;-68
2021/10/19 00:45:56;;;;;;;;;18.00;18.00;;;;;10.25;58.04;101663.34;4937636;29;11527;-69
2021/10/19 00:48:26;;;;;;;;;28.75;26.00;;;;;10.28;57.86;101660.81;4938318;29;12282;-69
2021/10/19 00:51:22;;;;;;;;;18.00;18.00;;;;;10.27;57.84;101656.41;4924593;29;11652;-69
2021/10/19 00:54:19;;;;;;;;;30.25;29.25;;;;;10.18;58.34;101666.47;4937642;29;12253;-68
2021/10/19 00:57:14;;;;;;;;;30.75;29.00;;;;;10.17;58.60;101662.09;4937112;29;11527;-68
2021/10/19 01:00:11;;;;;;;;;30.25;30.25;;;;;10.17;58.46;101667.59;4937060;29;11641;-68
2021/10/19 01:03:06;;;;;;;;;29.75;29.25;;;;;10.16;58.65;101663.22;4936104;29;11525;-68
2021/10/19 01:06:06;;;;;;;;;33.75;28.75;;;;;10.11;58.50;101656.94;4936971;29;11539;-68
2021/10/19 01:09:02;;;;;;;;;28.25;28.25;;;;;10.19;58.56;101651.53;4924236;29;11560;-68
2021/10/19 01:11:57;;;;;;;;;35.50;32.25;;;;;10.22;58.57;101666.72;4924449;29;11507;-68
2021/10/19 01:14:26;;;;;;;;;28.75;27.00;;;;;10.13;59.13;101657.47;4938129;29;11560;-67
2021/10/19 01:16:57;;;;;;;;;28.50;28.50;;;;;10.05;58.99;101656.25;4937870;29;11535;-68
2021/10/19 01:19:53;;;;;;;;;26.75;26.75;;;;;10.17;59.01;101659.31;4928849;29;11549;-68
2021/10/19 01:22:49;;;;;;;;;29.50;26.50;;;;;10.21;59.06;101654.00;4936757;29;11515;-68
2021/10/19 01:25:45;;;;;;;;;29.00;29.00;;;;;10.20;59.11;101657.91;4937016;29;11534;-69
2021/10/19 01:28:44;;;;;;;;;31.00;30.50;;;;;10.29;58.85;101665.22;4936408;29;11532;-68
2021/10/19 01:31:48;;;;;;;;;30.00;28.25;;;;;10.27;58.81;101664.72;4936487;29;11701;-69
2021/10/19 01:34:44;;;;;;;;;28.50;28.50;;;;;10.18;59.09;101660.13;4936624;29;12297;-69
2021/10/19 01:37:40;;;;;;;;;26.75;26.75;;;;;10.05;59.41;101659.00;4936725;29;11539;-69
2021/10/19 01:40:37;;;;;;;;;31.25;29.25;;;;;10.07;59.66;101658.69;4935771;29;11516;-69
2021/10/19 01:43:32;;;;;;;;;31.00;30.50;;;;;10.01;59.47;101660.72;4936142;29;11654;-69
2021/10/19 01:46:28;;;;;;;;;28.00;28.00;;;;;9.98;60.01;101653.88;4936295;29;11533;-69
2021/10/19 01:49:23;;;;;;;;;30.50;30.00;;;;;10.09;60.03;101659.19;4923642;29;11596;-69
2021/10/19 01:52:19;;;;;;;;;25.25;25.25;;;;;10.08;60.20;101661.16;4923533;29;11640;-69
2021/10/19 01:55:15;;;;;;;;;31.00;30.75;;;;;10.11;60.28;101656.94;4936401;29;11600;-68
2021/10/19 01:58:11;;;;;;;;;29.00;28.75;;;;;10.10;60.61;101658.88;4930687;29;11562;-68
2021/10/19 02:01:06;;;;;;;;;24.50;24.50;;;;;10.00;60.83;101661.84;4922772;29;11517;-68
2021/10/19 02:04:02;;;;;;;;;32.00;31.50;;;;;9.98;60.93;101659.41;4929163;29;11616;-68
2021/10/19 02:06:58;;;;;;;;;26.50;26.00;;;;;9.94;61.32;101674.94;4917144;29;11545;-68
2021/10/19 02:09:53;;;;;;;;;42.00;38.75;;;;;9.93;61.63;101672.47;4916889;29;12310;-68
2021/10/19 02:12:49;;;;;;;;;21.00;19.50;;;;;9.92;61.86;101673.59;4916853;29;11640;-68
2021/10/19 02:15:44;;;;;;;;;28.25;28.25;;;;;9.79;62.43;101674.38;4916824;29;11518;-70
2021/10/19 02:18:40;;;;;;;;;31.00;31.00;;;;;9.97;61.72;101677.09;4919175;29;11558;-67
2021/10/19 02:21:35;;;;;;;;;26.50;26.00;;;;;9.89;62.22;101676.94;4916627;29;11584;-69
2021/10/19 02:24:31;;;;;;;;;35.25;34.50;;;;;9.94;62.12;101676.88;4916731;29;11684;-67
2021/10/19 02:27:27;;;;;;;;;31.50;31.50;;;;;9.94;62.25;101671.34;4932572;29;11623;-68
2021/10/19 02:30:23;;;;;;;;;24.75;24.75;;;;;9.94;62.70;101677.69;4922901;29;11617;-70
2021/10/19 02:33:19;;;;;;;;;27.75;26.00;;;;;10.04;62.26;101665.63;4922709;29;11592;-67
2021/10/19 02:36:15;;;;;;;;;25.75;25.75;;;;;9.96;62.16;101669.91;4936162;29;11518;-67
2021/10/19 02:39:11;;;;;;;;;32.75;32.25;;;;;9.89;63.07;101669.50;4922829;29;11573;-68
2021/10/19 02:42:06;;;;;;;;;30.75;29.75;;;;;9.89;63.01;101669.50;4929295;29;11547;-67
2021/10/19 02:45:04;;;;;;;;;34.00;32.25;;;;;10.05;62.41;101667.28;4935274;29;11554;-68
2021/10/19 02:47:32;;;;;;;;;28.00;27.75;;;;;10.09;62.42;101668.31;4936305;29;11545;-68
2021/10/19 02:50:00;;;;;;;;;11.00;11.00;;;;;10.09;62.31;101667.50;4936267;29;11628;-68
2021/10/19 02:52:56;;;;;;;;;28.25;28.25;;;;;10.02;62.92;101663.16;4922358;29;11512;-67
2021/10/19 02:55:51;;;;;;;;;32.25;31.75;;;;;10.17;62.67;101673.13;4935026;29;11575;-67
2021/10/19 02:58:19;;;;;;;;;32.50;31.75;;;;;10.18;62.43;101682.25;4935524;29;11627;-68
2021/10/19 03:00:47;;;;;;;;;29.50;29.00;;;;;10.06;62.71;101674.47;4936089;29;11639;-68
2021/10/19 03:03:29;;;;;;;;;28.00;28.00;;;;;10.18;62.49;101687.78;4920735;29;11585;-68
2021/10/19 03:06:24;;;;;;;;;32.25;32.25;;;;;10.03;63.26;101691.63;4935211;29;11577;-68
2021/10/19 03:09:20;;;;;;;;;35.25;33.75;;;;;10.09;63.01;101682.13;4935048;29;11552;-68
2021/10/19 03:12:15;;;;;;;;;34.00;33.50;;;;;10.01;63.33;101691.13;4934585;29;11586;-69
2021/10/19 03:15:11;;;;;;;;;34.50;33.50;;;;;9.99;62.88;101696.13;4935280;29;11797;-69
2021/10/19 03:17:53;;;;;;;;;29.25;29.25;;;;;9.84;62.51;101699.97;4926415;29;11545;-69
2021/10/19 03:20:49;;;;;;;;;33.50;33.50;;;;;9.81;62.98;101696.97;4934858;29;11547;-68
2021/10/19 03:23:45;;;;;;;;;30.50;30.50;;;;;9.97;62.15;101699.22;4934463;29;11533;-69
2021/10/19 03:26:40;;;;;;;;;30.25;30.25;;;;;9.93;62.34;101709.22;4927361;29;11602;-69
2021/10/19 03:29:36;;;;;;;;;29.00;29.00;;;;;10.05;62.09;101700.47;4927314;29;11673;-69
2021/10/19 03:32:32;;;;;;;;;32.50;32.50;;;;;9.81;62.38;101691.44;4934839;29;11610;-71
2021/10/19 03:35:28;;;;;;;;;31.75;31.75;;;;;9.82;62.56;101682.88;4934330;29;11583;-69
2021/10/19 03:38:23;;;;;;;;;30.00;30.00;;;;;9.63;63.31;101680.13;4915606;29;11612;-69
2021/10/19 03:40:59;;;;;;;;;35.50;34.00;;;;;9.72;63.22;101681.09;4916662;29;12432;-69
2021/10/19 03:43:55;;;;;;;;;32.75;32.75;;;;;9.89;62.84;101675.03;4908015;29;11538;-69
2021/10/19 03:46:23;;;;;;;;;39.50;37.25;;;;;9.83;63.01;101669.88;4916526;29;11555;-68
2021/10/19 03:49:18;;;;;;;;;42.50;38.25;;;;;9.62;64.02;101669.41;4915944;29;11620;-69
2021/10/19 03:52:14;;;;;;;;;59.00;48.25;;;;;9.63;63.80;101671.84;4915423;29;11578;-69
2021/10/19 03:54:56;;;;;;;;;38.00;35.00;;;;;9.55;64.36;101674.47;4916428;29;11708;-69
2021/10/19 03:57:57;;;;;;;;;47.00;42.00;;;;;9.68;63.73;101682.00;4934005;29;11605;-69
2021/10/19 04:00:53;;;;;;;;;33.00;31.75;;;;;9.63;64.00;101693.94;4933964;29;11815;-68
2021/10/19 04:03:48;;;;;;;;;41.25;36.25;;;;;9.69;64.19;101697.47;4934073;29;11657;-68
2021/10/19 04:06:44;;;;;;;;;31.50;31.50;;;;;9.68;63.70;101693.06;4934491;29;11589;-68
2021/10/19 04:09:40;;;;;;;;;35.50;35.25;;;;;9.73;63.53;101698.47;4933943;29;12233;-68
2021/10/19 04:12:36;;;;;;;;;39.50;37.50;;;;;9.66;63.15;101704.41;4934082;29;11554;-68
2021/10/19 04:15:31;;;;;;;;;39.75;35.00;;;;;9.67;63.01;101694.19;4934251;29;11596;-68
2021/10/19 04:18:27;;;;;;;;;44.50;41.00;;;;;9.58;63.24;101696.78;4934245;29;11624;-67
2021/10/19 04:21:22;;;;;;;;;55.25;43.25;;;;;9.54;63.66;101705.97;4934048;29;11608;-67
2021/10/19 04:24:18;;;;;;;;;49.25;43.75;;;;;9.43;63.85;101697.00;4921467;29;11597;-67
2021/10/19 04:26:59;;;;;;;;;46.75;39.50;;;;;9.63;63.37;101710.50;4934669;29;12309;-67
2021/10/19 04:29:55;;;;;;;;;34.50;34.50;;;;;9.66;63.26;101707.19;4933941;29;11689;-67
2021/10/19 04:32:51;;;;;;;;;40.75;38.50;;;;;9.52;63.62;101719.28;4933719;29;11621;-67
2021/10/19 04:35:46;;;;;;;;;39.50;37.50;;;;;9.48;63.89;101727.31;4934185;29;11611;-67
2021/10/19 04:38:42;;;;;;;;;42.25;38.75;;;;;9.49;63.61;101740.00;4935846;29;11615;-67
2021/10/19 04:41:10;;;;;;;;;35.50;32.25;;;;;9.61;63.68;101739.56;4938637;29;11607;-67
2021/10/19 04:44:06;;;;;;;;;34.50;34.25;;;;;9.67;63.19;101739.19;4937653;29;11740;-67
2021/10/19 04:46:34;;;;;;;;;37.00;36.75;;;;;9.65;63.35;101730.38;4938646;29;11598;-67
2021/10/19 04:49:30;;;;;;;;;37.25;35.50;;;;;9.67;63.29;101739.19;4924551;29;11593;-68
2021/10/19 04:52:27;;;;;;;;;35.50;35.50;;;;;9.63;63.83;101738.13;4924679;29;12474;-68
2021/10/19 04:55:08;;;;;;;;;31.75;31.75;;;;;9.73;63.52;101735.22;4937902;29;11808;-67
2021/10/19 04:58:04;;;;;;;;;38.50;32.25;;;;;9.74;63.64;101725.00;4936187;29;11601;-67
2021/10/19 05:00:59;;;;;;;;;28.50;28.25;;;;;9.58;64.32;101729.09;4936394;29;11616;-67
2021/10/19 05:03:46;;;;;;;;;39.25;38.00;;;;;9.58;64.33;101735.44;4906452;29;11629;-67
2021/10/19 05:06:43;;;;;;;;;41.50;35.75;;;;;9.52;64.41;101739.41;4937019;29;11598;-67
2021/10/19 05:09:38;;;;;;;;;41.00;38.50;;;;;9.61;64.57;101745.91;4936474;29;11599;-67
2021/10/19 05:12:34;;;;;;;;;40.25;38.25;;;;;9.79;63.69;101744.25;4936240;29;11706;-67
2021/10/19 05:15:03;;;;;;;;;33.50;33.25;;;;;9.68;64.14;101746.34;4937938;29;11680;-68
2021/10/19 05:17:31;;;;;;;;;74.75;51.50;;;;;9.71;64.34;101744.94;4937080;29;11622;-68
2021/10/19 05:20:27;;;;;;;;;46.00;40.50;;;;;9.74;64.38;101747.94;4935841;29;11723;-68
2021/10/19 05:23:22;;;;;;;;;46.00;41.25;;;;;9.79;64.30;101769.13;4936053;29;12478;-68
2021/10/19 05:26:18;;;;;;;;;38.00;36.75;;;;;9.84;64.42;101776.53;4923910;29;11587;-68
2021/10/19 05:28:46;;;;;;;;;34.50;34.00;;;;;9.85;64.70;101783.69;4936796;29;11599;-69
2021/10/19 05:31:15;;;;;;;;;35.75;34.50;;;;;9.88;64.65;101780.31;4919883;29;11587;-67
2021/10/19 05:34:10;;;;;;;;;36.50;35.00;;;;;9.97;64.51;101778.53;4936290;29;11642;-68
2021/10/19 05:37:06;;;;;;;;;43.25;38.00;;;;;10.04;65.95;101770.66;4936074;29;11721;-70
2021/10/19 05:40:06;;;;;;;;;102.50;64.75;;;;;10.25;66.60;101779.47;4935985;29;11611;-71
2021/10/19 05:42:45;;;;;;;;;44.50;38.50;;;;;10.77;71.81;101769.97;4918500;29;11666;-70
2021/10/19 05:45:40;;;;;;;;;35.00;33.00;;;;;10.77;66.58;101778.25;4935875;29;11552;-71
2021/10/19 05:48:36;;;;;;;;;45.25;40.50;;;;;10.65;65.10;101780.69;4935855;29;11580;-71
2021/10/19 05:51:32;;;;;;;;;42.50;38.75;;;;;10.78;65.43;101776.31;4922989;29;11669;-70
2021/10/19 05:54:28;;;;;;;;;48.00;38.50;;;;;10.65;64.88;101772.41;4936306;29;11648;-70
2021/10/19 05:57:23;;;;;;;;;44.00;37.50;;;;;10.46;64.08;101797.38;4922991;29;11621;-70
2021/10/19 06:00:19;;;;;;;;;37.00;36.00;;;;;10.42;64.32;101798.25;4935715;29;11581;-70
2021/10/19 06:03:14;;;;;;;;;40.75;39.00;;;;;10.19;65.23;101791.72;4935158;29;12428;-71
2021/10/19 06:06:14;;;;;;;;;40.75;38.75;;;;;10.21;64.92;101790.31;4935490;29;12140;-71
2021/10/19 06:08:41;;;;;;;;;37.75;32.50;;;;;10.33;65.53;101791.78;4935932;29;12448;-69
2021/10/19 06:11:37;;;;;;;;;38.50;36.00;;;;;10.63;66.31;101790.44;4935827;29;11647;-69
2021/10/19 06:14:06;;;;;;;;;28.25;27.25;;;;;10.71;64.68;101796.09;4938601;29;11859;-68
2021/10/19 06:17:02;;;;;;;;;45.00;39.00;;;;;10.74;63.90;101805.75;4922717;29;11655;-67
2021/10/19 06:19:57;;;;;;;;;43.75;39.25;;;;;10.71;63.69;101814.63;4935590;29;11608;-66
2021/10/19 06:22:53;;;;;;;;;43.75;40.00;;;;;10.55;64.51;101814.91;4922764;29;11830;-66
2021/10/19 06:25:49;;;;;;;;;32.00;30.50;;;;;10.60;64.54;101825.06;4934955;29;12452;-67
2021/10/19 06:28:30;;;;;;;;;46.25;41.75;;;;;10.48;64.90;101816.41;4936103;29;11697;-67
2021/10/19 06:31:25;;;;;;;;;46.75;41.75;;;;;10.45;65.36;101814.28;4919416;29;12080;-67
2021/10/19 06:34:16;;;;;;;;;47.75;42.75;;;;;10.42;65.72;101815.69;4917186;29;11694;-66
2021/10/19 06:36:44;;;;;;;;;47.50;42.25;;;;;10.51;65.58;101813.88;4921832;29;11587;-67
2021/10/19 06:39:39;;;;;;;;;57.25;46.75;;;;;10.77;64.77;101808.72;4918348;29;11735;-66
2021/10/19 06:42:07;;;;;;;;;61.75;50.25;;;;;10.64;65.34;101815.03;4917261;29;11610;-67
2021/10/19 06:45:04;;;;;;;;;61.00;50.50;;;;;10.80;65.00;101813.63;4921729;29;11622;-67
2021/10/19 06:48:00;;;;;;;;;58.25;50.00;;;;;10.98;64.79;101811.91;4921143;29;11624;-66
2021/10/19 06:50:56;;;;;;;;;67.25;56.25;;;;;11.01;64.62;101818.78;4904153;29;11651;-67
2021/10/19 06:53:51;;;;;;;;;66.50;53.75;;;;;10.86;65.45;101825.41;4901383;29;11585;-67
2021/10/19 06:56:47;;;;;;;;;74.00;58.50;;;;;10.81;65.91;101826.34;4913088;29;11570;-66
2021/10/19 06:59:43;;;;;;;;;72.75;58.75;;;;;10.63;66.49;101829.16;4898870;29;11560;-67
2021/10/19 07:02:39;;;;;;;;;69.75;57.00;;;;;10.62;66.97;101830.28;4902340;29;11622;-66
2021/10/19 07:05:27;;;;;;;;;66.25;53.50;;;;;10.46;67.05;101843.56;4914326;29;11615;-66
2021/10/19 07:07:55;;;;;;;;;69.75;56.00;;;;;10.62;66.66;101835.81;4914311;29;11637;-66
2021/10/19 07:10:23;;;;;;;;;67.00;54.75;;;;;10.61;66.62;101848.84;4898468;29;11672;-67
2021/10/19 07:12:52;;;;;;;;;62.25;49.00;;;;;10.49;66.87;101854.84;4916430;29;11637;-67
2021/10/19 07:15:21;;;;;;;;;55.25;47.25;;;;;10.42;67.23;101857.16;4916929;29;12395;-67
2021/10/19 07:17:49;;;;;;;;;57.00;47.00;;;;;10.69;66.69;101859.22;4930263;29;12281;-68
2021/10/19 07:20:45;;;;;;;;;56.75;47.25;;;;;10.68;66.40;101846.50;4935446;29;11616;-67
2021/10/19 07:23:41;;;;;;;;;51.25;42.50;;;;;10.54;66.72;101863.06;4934894;29;11718;-68
2021/10/19 07:26:37;;;;;;;;;61.75;48.75;;;;;10.66;66.67;101865.38;4896542;29;11597;-66
2021/10/19 07:29:32;;;;;;;;;61.50;50.50;;;;;10.77;66.14;101864.03;4896782;29;11574;-67
2021/10/19 07:32:28;;;;;;;;;54.00;43.25;;;;;10.66;66.33;101870.91;4896680;29;12418;-67
2021/10/19 07:34:55;;;;;;;;;54.25;43.75;;;;;10.57;66.60;101872.69;4908705;29;11597;-67
2021/10/19 07:37:23;;;;;;;;;58.75;46.75;;;;;10.63;66.60;101874.25;4913411;29;11658;-66
2021/10/19 07:40:06;;;;;;;;;61.00;50.00;;;;;10.56;66.49;101876.59;4900927;29;11624;-66
2021/10/19 07:43:02;;;;;;;;;58.00;47.00;;;;;10.69;66.38;101889.66;4896819;29;11589;-66
2021/10/19 07:45:30;;;;;;;;;57.50;42.75;;;;;10.61;66.30;101889.53;4903295;29;11573;-65
2021/10/19 07:48:02;;;;;;;;;39.25;36.00;;;;;10.55;65.58;101888.78;4916264;29;11574;-66
2021/10/19 07:50:57;;;;;;;;;27.75;26.75;;;;;10.35;65.78;101900.16;4916078;29;11545;-67
2021/10/19 07:53:53;;;;;;;;;32.25;31.25;;;;;10.32;65.38;101898.81;4915100;29;11531;-67
2021/10/19 07:56:24;;;;;;;;;30.25;30.25;;;;;10.45;65.22;101908.31;4916789;29;11536;-67
2021/10/19 07:58:52;;;;;;;;;41.25;38.00;;;;;10.37;65.09;101901.50;4916550;29;11584;-68
2021/10/19 08:01:48;;;;;;;;;40.00;37.25;;;;;10.45;64.06;101913.84;4913036;29;12522;-67
2021/10/19 08:04:30;;;;;;;;;44.50;37.75;;;;;10.40;64.20;101905.63;4914317;29;11495;-67
2021/10/19 08:07:28;;;;;;;;;55.75;41.25;;;;;10.34;63.49;101906.81;4916558;29;11575;-67
2021/10/19 08:10:24;;;;;;;;;54.25;41.50;;;;;10.63;63.24;101914.94;4914918;29;12432;-66
2021/10/19 08:13:01;;;;;;;;;47.75;40.00;;;;;10.52;62.98;101908.75;4916465;29;11615;-69
2021/10/19 08:16:16;;;;;;;;;37.75;36.00;;;;;10.74;62.50;101920.00;4918698;29;11591;-67
2021/10/19 08:18:45;;;;;;;;;36.75;33.00;;;;;10.93;61.93;101922.72;4903064;29;11611;-68
2021/10/19 08:21:40;;;;;;;;;46.50;38.75;;;;;11.14;61.32;101921.25;4906083;29;11960;-68
2021/10/19 08:24:08;;;;;;;;;36.50;33.75;;;;;11.27;61.11;101930.72;4919699;29;11668;-66
2021/10/19 08:27:03;;;;;;;;;42.50;33.75;;;;;11.10;61.09;101935.97;4905910;29;11537;-68
2021/10/19 08:29:59;;;;;;;;;21.75;20.50;;;;;11.14;60.42;101937.03;4918251;29;11554;-66
2021/10/19 08:32:56;;;;;;;;;46.50;38.50;;;;;11.20;60.16;101946.06;4917114;29;11535;-67
2021/10/19 08:35:51;;;;;;;;;37.75;35.00;;;;;11.36;59.36;101947.44;4920130;29;11570;-67
2021/10/19 08:38:48;;;;;;;;;21.50;18.25;;;;;11.36;58.40;101951.03;4901017;29;11601;-67
2021/10/19 08:41:17;;;;;;;;;17.25;16.25;;;;;11.54;57.89;101956.78;4930189;29;11250;-67
2021/10/19 08:44:13;;;;;;;;;15.25;15.25;;;;;11.48;56.73;101949.69;4905851;29;11101;-67
2021/10/19 08:47:08;;;;;;;;;23.00;23.00;;;;;11.67;56.97;101936.59;4905516;29;11003;-67
2021/10/19 08:49:37;;;;;;;;;17.00;16.25;;;;;11.73;56.84;101942.81;4901040;29;11253;-67
2021/10/19 08:52:04;;;;;;;;;17.25;16.50;;;;;11.79;56.99;101952.69;4919297;29;11058;-67
2021/10/19 08:54:46;;;;;;;;;21.25;20.75;;;;;12.00;55.55;101942.84;4918812;29;11114;-67
2021/10/19 08:57:41;;;;;;;;;15.75;15.75;;;;;12.27;52.75;101941.97;4906164;29;10951;-67
2021/10/19 09:00:27;;;;;;;;;19.50;19.50;;;;;12.49;52.32;101950.31;4917214;29;10972;-67
2021/10/19 09:03:23;;;;;;;;;24.75;20.25;;;;;12.60;52.59;101945.38;4914337;29;10755;-68
2021/10/19 09:05:53;;;;;;;;;23.75;22.75;;;;;12.35;53.33;101946.78;4919170;29;10852;-67
2021/10/19 09:08:24;;;;;;;;;23.00;18.00;;;;;12.32;54.06;101960.44;4918699;29;10942;-67
2021/10/19 09:10:53;;;;;;;;;26.00;24.50;;;;;12.31;53.49;101956.03;4900863;29;10760;-68
2021/10/19 09:13:53;;;;;;;;;24.25;24.25;;;;;12.18;53.97;101966.84;4919519;29;10926;-69
2021/10/19 09:16:47;;;;;;;;;23.50;23.25;;;;;12.33;53.45;101959.31;4916598;29;11966;-67
2021/10/19 09:19:45;;;;;;;;;27.25;24.25;;;;;12.65;53.36;101958.28;4919241;29;11079;-68
2021/10/19 09:22:13;;;;;;;;;28.00;26.00;;;;;12.71;52.84;101960.63;4918688;29;11029;-66
2021/10/19 09:25:08;;;;;;;;;22.00;22.00;;;;;12.04;53.81;101954.97;4912166;29;11092;-66
2021/10/19 09:27:51;;;;;;;;;16.25;16.25;;;;;12.83;52.01;101959.25;4915535;29;10873;-67
2021/10/19 09:30:50;;;;;;;;;15.25;15.25;;;;;12.91;50.63;101962.09;4917666;29;10851;-68
2021/10/19 09:33:20;;;;;;;;;20.75;19.00;;;;;13.03;49.75;101954.03;4904387;29;10525;-67
2021/10/19 09:36:02;;;;;;;;;25.50;23.50;;;;;13.08;50.29;101939.97;4917938;29;10365;-67
2021/10/19 09:38:31;;;;;;;;;21.25;19.50;;;;;13.50;48.27;101957.25;4918220;29;11733;-67
2021/10/19 09:41:01;;;;;;;;;18.50;11.75;;;;;13.56;47.57;101955.94;4918447;29;10242;-67
2021/10/19 09:43:32;;;;;;;;;28.00;26.50;;;;;13.73;47.33;101951.63;4918780;29;10318;-68
2021/10/19 09:46:04;;;;;;;;;15.75;14.75;;;;;13.48;46.39;101953.13;4910945;29;10544;-68
2021/10/19 09:48:34;;;;;;;;;13.00;12.00;;;;;13.74;46.09;101947.69;4916846;29;10076;-68
2021/10/19 09:51:39;;;;;;;;;12.00;11.25;;;;;13.92;45.84;101943.81;4917209;29;10840;-68
2021/10/19 09:54:24;;;;;;;;;11.00;11.00;;;;;13.50;45.67;101951.69;4917773;29;10188;-68
2021/10/19 09:57:20;;;;;;;;;10.25;10.25;;;;;13.20;45.46;101947.78;4917377;29;9964;-66
2021/10/19 10:00:17;;;;;;;;;9.75;9.75;;;;;13.82;45.81;101942.16;4917118;29;10027;-68
2021/10/19 10:02:54;;;;;;;;;5.25;5.25;;;;;13.77;44.70;101950.63;4919297;29;10035;-68
2021/10/19 10:05:22;;;;;;;;;12.50;12.50;;;;;14.08;44.32;101946.97;4917642;29;9965;-67
2021/10/19 10:08:06;;;;;;;;;5.50;5.50;;;;;13.53;44.31;101951.03;4916626;29;9968;-68
2021/10/19 10:10:34;;;;;;;;;16.50;10.25;;;;;14.05;42.68;101950.41;4917700;29;9977;-68
2021/10/19 10:13:14;;;;;;;;;8.50;8.50;;;;;13.76;42.64;101953.75;4917022;29;10203;-68
2021/10/19 10:15:42;;;;;;;;;1.00;1.00;;;;;14.43;41.92;101951.44;4893539;29;9868;-68
2021/10/19 10:18:12;;;;;;;;;13.25;12.25;;;;;14.18;40.79;101932.72;4915507;29;9877;-67
2021/10/19 10:20:47;;;;;;;;;11.75;11.00;;;;;15.03;39.63;101944.22;4915699;29;9946;-67
2021/10/19 10:23:43;;;;;;;;;12.00;12.00;;;;;15.34;39.45;101940.38;4897264;29;9882;-67
2021/10/19 10:26:35;;;;;;;;;11.25;11.25;;;;;15.44;39.24;101946.41;4907267;29;9775;-67
2021/10/19 10:29:13;;;;;;;;;7.33;7.33;;;;;15.20;39.35;101946.16;4929526;29;10490;-67
2021/10/19 10:31:52;;;;;;;;;8.33;7.33;;;;;14.53;39.42;101946.72;4934727;29;10137;-69
2021/10/19 10:35:08;;;;;;;;;4.00;4.00;;;;;14.72;39.51;101942.47;4933836;29;9458;-67
2021/10/19 10:37:48;;;;;;;;;5.67;5.67;;;;;14.57;40.00;101942.97;4917225;29;9420;-66
2021/10/19 10:40:40;;;;;;;;;10.50;10.50;;;;;14.43;39.57;101945.06;4934488;29;9539;-67
2021/10/19 10:43:22;;;;;;;;;11.50;11.50;;;;;15.08;39.09;101941.25;4934486;29;9536;-67
2021/10/19 10:46:10;;;;;;;;;15.25;14.00;;;;;15.02;39.12;101948.13;4920395;29;10440;-68
2021/10/19 10:49:11;;;;;;;;;13.75;13.00;;;;;15.19;38.65;101950.91;4933943;29;9924;-67
2021/10/19 10:52:17;;;;;;;;;5.75;5.00;;;;;16.12;37.77;101944.44;4920733;29;9490;-67
2021/10/19 10:55:13;;;;;;;;;7.33;7.33;;;;;16.30;35.69;101947.13;4933172;29;10259;-67
2021/10/19 10:57:43;;;;;;;;;7.67;7.67;;;;;16.14;35.26;101952.47;4934361;29;9434;-67
2021/10/19 11:00:39;;;;;;;;;7.33;7.33;;;;;16.45;34.77;101942.91;4934046;29;9405;-67
2021/10/19 11:03:34;;;;;;;;;26.50;21.50;;;;;16.43;34.90;101942.44;4933764;29;9265;-68
2021/10/19 11:06:04;;;;;;;;;11.00;11.00;;;;;16.07;35.02;101952.19;4933315;29;9558;-67
2021/10/19 11:08:34;;;;;;;;;7.00;7.00;;;;;15.85;35.56;101953.28;4916106;29;9042;-69
2021/10/19 11:11:12;;;;;;;;;8.33;8.33;;;;;16.51;35.51;101947.94;4920592;29;9014;-69
2021/10/19 11:13:58;;;;;;;;;15.67;15.67;;;;;16.25;35.96;101953.69;4935531;29;9218;-69
2021/10/19 11:16:43;;;;;;;;;18.75;17.75;;;;;15.70;36.43;101963.03;4934478;29;9271;-68
2021/10/19 11:19:18;;;;;;;;;5.00;5.00;;;;;15.36;35.99;101944.47;4913320;29;9626;-69
2021/10/19 11:22:05;;;;;;;;;12.00;12.00;;;;;14.88;37.53;101951.13;4926866;29;9203;-67
2021/10/19 11:25:01;;;;;;;;;21.75;21.75;;;;;14.86;37.86;101950.63;4932811;29;10056;-69
2021/10/19 11:27:57;;;;;;;;;12.33;12.00;;;;;15.89;35.79;101954.28;4929902;29;9580;-69
2021/10/19 11:30:52;;;;;;;;;8.67;8.67;;;;;16.38;33.67;101961.00;4934223;29;9407;-70
2021/10/19 11:33:20;;;;;;;;;5.67;5.67;;;;;16.91;32.75;101959.44;4933800;29;9160;-68
2021/10/19 11:35:48;;;;;;;;;8.33;8.33;;;;;16.89;32.54;101961.78;4935389;29;8943;-68
2021/10/19 11:38:29;;;;;;;;;9.00;8.67;;;;;17.04;32.32;101957.53;4919531;29;9118;-69
2021/10/19 11:41:27;;;;;;;;;7.50;7.50;;;;;16.32;31.78;101958.75;4934641;29;8954;-70
2021/10/19 11:44:35;;;;;;;;;6.75;6.75;;;;;16.45;31.69;101966.06;4934629;29;9792;-69
2021/10/19 11:47:44;;;;;;;;;7.67;7.00;;;;;16.74;31.56;101965.19;4936192;29;9580;-69
2021/10/19 11:50:32;;;;;;;;;11.00;10.00;;;;;16.79;31.78;101978.97;4938963;29;8976;-68
2021/10/19 11:53:07;;;;;;;;;9.50;9.50;;;;;17.22;30.58;101972.13;4920086;29;8851;-69
2021/10/19 11:55:35;;;;;;;;;12.25;12.25;;;;;16.58;31.29;101972.53;4911617;29;8849;-69
2021/10/19 11:58:23;;;;;;;;;13.33;13.33;;;;;16.88;31.99;101974.13;4920331;29;8886;-70
2021/10/19 12:00:53;;;;;;;;;9.00;9.00;;;;;15.91;32.74;101982.66;4934175;29;9080;-69
2021/10/19 12:03:29;;;;;;;;;8.33;8.33;;;;;15.41;34.34;101986.09;4939407;29;9009;-69
2021/10/19 12:06:27;;;;;;;;;13.33;12.00;;;;;15.15;34.30;101982.53;4933363;29;9090;-69
2021/10/19 12:09:22;;;;;;;;;17.50;17.00;;;;;14.92;35.19;101979.94;4938530;29;9267;-68
2021/10/19 12:12:24;;;;;;;;;13.75;13.75;;;;;15.49;34.40;101981.66;4936666;29;9810;-68
2021/10/19 12:14:55;;;;;;;;;8.00;8.00;;;;;15.70;33.24;101974.19;4938905;29;9631;-69
2021/10/19 12:18:07;;;;;;;;;9.67;9.33;;;;;16.25;32.35;101973.25;4936299;29;9388;-68
2021/10/19 12:21:03;;;;;;;;;4.33;4.33;;;;;16.36;31.41;101979.25;4937668;29;9260;-68
2021/10/19 12:24:01;;;;;;;;;7.00;7.00;;;;;16.53;31.47;101976.34;4939215;29;8999;-68
2021/10/19 12:27:09;;;;;;;;;5.00;5.00;;;;;16.39;31.31;101982.19;4936610;29;8833;-69
2021/10/19 12:30:13;;;;;;;;;7.00;7.00;;;;;16.05;32.01;101982.41;4918578;29;9013;-68
2021/10/19 12:33:29;;;;;;;;;7.00;7.00;;;;;15.60;32.92;101993.25;4918788;29;8829;-69
2021/10/19 12:36:27;;;;;;;;;17.00;16.75;;;;;14.87;33.49;101991.25;4917071;29;9280;-68
2021/10/19 12:39:24;;;;;;;;;13.75;13.50;;;;;15.04;33.62;101993.22;4903766;29;10242;-69
2021/10/19 12:41:53;;;;;;;;;14.33;14.33;;;;;15.47;33.52;101993.13;4919680;29;9561;-67
2021/10/19 12:44:49;;;;;;;;;7.00;7.00;;;;;15.71;32.60;101988.97;4905915;29;9438;-69
2021/10/19 12:47:32;;;;;;;;;7.00;7.00;;;;;16.01;32.29;101987.03;4919665;29;9343;-67
2021/10/19 12:50:00;;;;;;;;;10.33;9.33;;;;;16.27;32.08;101989.69;4901413;29;9264;-67